createdAt,value
2022-08-27T00:00:32.971Z,10.70
2022-08-27T00:01:32.528Z,13.10
2022-08-27T00:02:32.637Z,13.50
2022-08-27T00:03:32.479Z,11.70
2022-08-27T00:04:32.488Z,11.10
2022-08-27T00:05:32.839Z,12.20
2022-08-27T00:06:32.416Z,10.80
2022-08-27T00:07:32.409Z,11.20
2022-08-27T00:08:32.419Z,13.00
2022-08-27T00:09:32.400Z,11.70
2022-08-27T00:10:32.810Z,11.90
2022-08-27T00:11:32.371Z,11.40
2022-08-27T00:12:32.347Z,12.40
2022-08-27T00:13:32.370Z,12.30
2022-08-27T00:14:32.363Z,12.40
2022-08-27T00:15:32.828Z,11.80
2022-08-27T00:16:32.359Z,11.10
2022-08-27T00:17:32.340Z,10.90
2022-08-27T00:18:32.259Z,11.40
2022-08-27T00:19:32.370Z,12.40
2022-08-27T00:20:33.544Z,12.10
2022-08-27T00:21:32.238Z,10.90
2022-08-27T00:22:32.248Z,11.30
2022-08-27T00:23:32.227Z,11.10
2022-08-27T00:24:32.188Z,11.00
2022-08-27T00:25:32.586Z,12.60
2022-08-27T00:26:32.168Z,11.10
2022-08-27T00:27:32.167Z,11.10
2022-08-27T00:28:32.136Z,13.80
2022-08-27T00:29:32.578Z,12.00
2022-08-27T00:30:32.128Z,10.60
2022-08-27T00:31:32.129Z,10.80
2022-08-27T00:32:32.086Z,10.80
2022-08-27T00:33:32.156Z,11.70
2022-08-27T00:34:32.535Z,11.70
2022-08-27T00:35:32.056Z,10.80
2022-08-27T00:36:32.044Z,11.20
2022-08-27T00:37:32.047Z,13.30
2022-08-27T00:38:31.985Z,12.60
2022-08-27T00:39:31.984Z,11.50
2022-08-27T00:40:32.474Z,11.70
2022-08-27T00:41:31.979Z,11.80
2022-08-27T00:42:31.966Z,11.00
2022-08-27T00:43:31.963Z,15.30
2022-08-27T00:44:31.967Z,11.80
2022-08-27T00:45:32.411Z,11.60
2022-08-27T00:46:32.106Z,13.60
2022-08-27T00:47:33.565Z,11.80
2022-08-27T00:48:31.887Z,12.70
2022-08-27T00:49:32.144Z,11.80
2022-08-27T00:50:32.165Z,11.90
2022-08-27T00:51:31.854Z,12.30
2022-08-27T00:52:31.838Z,12.20
2022-08-27T00:53:31.803Z,12.20
2022-08-27T00:54:31.809Z,11.30
2022-08-27T00:55:32.104Z,12.90
2022-08-27T00:56:31.793Z,11.20
2022-08-27T00:57:31.776Z,10.80
2022-08-27T00:58:31.735Z,12.60
2022-08-27T00:59:31.742Z,12.00
2022-08-27T01:00:32.295Z,11.50
2022-08-27T01:01:31.736Z,11.20
2022-08-27T01:02:31.999Z,10.80
2022-08-27T01:03:32.271Z,11.70
2022-08-27T01:04:31.664Z,11.40
2022-08-27T01:05:31.960Z,10.50
2022-08-27T01:06:31.659Z,11.10
2022-08-27T01:07:31.671Z,14.40
2022-08-27T01:08:31.611Z,11.30
2022-08-27T01:09:31.602Z,11.00
2022-08-27T01:10:32.015Z,11.00
2022-08-27T01:11:31.561Z,10.80
2022-08-27T01:12:31.570Z,11.50
2022-08-27T01:13:58.883Z,11.10
2022-08-27T01:14:32.557Z,12.40
2022-08-27T01:15:31.568Z,13.20
2022-08-27T01:16:32.170Z,12.50
2022-08-27T01:17:31.482Z,11.50
2022-08-27T01:18:31.460Z,15.80
2022-08-27T01:19:31.469Z,12.00
2022-08-27T01:20:31.451Z,11.10
2022-08-27T01:21:31.792Z,11.20
2022-08-27T01:22:31.478Z,12.60
2022-08-27T01:23:31.427Z,11.10
2022-08-27T01:24:31.401Z,10.90
2022-08-27T01:25:31.400Z,11.70
2022-08-27T01:26:31.820Z,12.70
2022-08-27T01:27:31.485Z,10.70
2022-08-27T01:28:35.842Z,12.10
2022-08-27T01:29:32.342Z,11.20
2022-08-27T01:30:31.318Z,11.50
2022-08-27T01:31:31.713Z,12.90
2022-08-27T01:32:31.290Z,11.90
2022-08-27T01:33:31.318Z,13.10
2022-08-27T01:34:31.290Z,12.50
2022-08-27T01:35:31.248Z,10.70
2022-08-27T01:36:31.678Z,12.90
2022-08-27T01:37:31.229Z,12.20
2022-08-27T01:38:31.410Z,12.80
2022-08-27T01:39:31.439Z,13.60
2022-08-27T01:40:31.252Z,13.50
2022-08-27T01:41:31.605Z,10.80
2022-08-27T01:42:31.184Z,12.80
2022-08-27T01:43:31.168Z,11.10
2022-08-27T01:44:31.168Z,13.30
2022-08-27T01:45:31.131Z,11.60
2022-08-27T01:46:31.594Z,12.90
2022-08-27T01:47:31.302Z,11.10
2022-08-27T01:48:31.106Z,12.40
2022-08-27T01:49:31.077Z,12.80
2022-08-27T01:50:31.056Z,11.80
2022-08-27T01:51:31.068Z,11.40
2022-08-27T01:52:31.917Z,12.10
2022-08-27T01:53:31.035Z,12.80
2022-08-27T01:54:31.156Z,15.00
2022-08-27T01:55:31.027Z,14.10
2022-08-27T01:56:30.976Z,12.90
2022-08-27T01:57:31.308Z,12.80
2022-08-27T01:58:30.984Z,12.90
2022-08-27T01:59:39.536Z,13.50
2022-08-27T02:00:32.001Z,12.50
2022-08-27T02:01:31.632Z,11.80
2022-08-27T02:02:30.954Z,13.00
2022-08-27T02:03:31.218Z,15.00
2022-08-27T02:04:32.044Z,12.60
2022-08-27T02:05:30.855Z,12.00
2022-08-27T02:06:30.863Z,12.10
2022-08-27T02:07:31.273Z,12.10
2022-08-27T02:08:30.817Z,13.60
2022-08-27T02:09:30.815Z,13.50
2022-08-27T02:10:30.805Z,13.70
2022-08-27T02:11:30.833Z,12.20
2022-08-27T02:12:31.267Z,13.70
2022-08-27T02:13:30.761Z,15.50
2022-08-27T02:14:30.745Z,12.60
2022-08-27T02:15:30.744Z,15.20
2022-08-27T02:16:31.448Z,13.70
2022-08-27T02:17:30.902Z,12.20
2022-08-27T02:18:30.694Z,15.70
2022-08-27T02:19:30.717Z,13.10
2022-08-27T02:20:30.675Z,13.40
2022-08-27T02:21:30.677Z,13.20
2022-08-27T02:22:30.671Z,13.60
2022-08-27T02:23:30.616Z,11.50
2022-08-27T02:24:30.628Z,12.80
2022-08-27T02:25:30.606Z,12.50
2022-08-27T02:26:30.603Z,13.90
2022-08-27T02:27:31.013Z,12.80
2022-08-27T02:28:30.552Z,15.50
2022-08-27T02:29:30.553Z,12.10
2022-08-27T02:30:30.554Z,12.80
2022-08-27T02:31:30.599Z,13.40
2022-08-27T02:32:32.038Z,12.50
2022-08-27T02:33:31.803Z,14.60
2022-08-27T02:34:30.489Z,14.10
2022-08-27T02:35:30.461Z,13.00
2022-08-27T02:36:30.472Z,13.00
2022-08-27T02:37:30.863Z,13.60
2022-08-27T02:38:30.421Z,12.80
2022-08-27T02:39:30.404Z,15.90
2022-08-27T02:40:30.450Z,14.40
2022-08-27T02:41:30.391Z,14.50
2022-08-27T02:42:30.411Z,13.90
2022-08-27T02:43:30.760Z,13.40
2022-08-27T02:44:30.389Z,14.80
2022-08-27T02:45:30.369Z,12.60
2022-08-27T02:46:30.375Z,12.70
2022-08-27T02:47:30.358Z,13.60
2022-08-27T02:48:30.741Z,13.80
2022-08-27T02:49:30.300Z,13.90
2022-08-27T02:50:30.293Z,14.20
2022-08-27T02:51:30.250Z,15.60
2022-08-27T02:52:30.597Z,13.50
2022-08-27T02:53:30.251Z,15.80
2022-08-27T02:54:30.260Z,13.30
2022-08-27T02:55:30.218Z,15.50
2022-08-27T02:56:30.216Z,13.30
2022-08-27T02:57:30.188Z,13.70
2022-08-27T02:58:30.620Z,15.50
2022-08-27T02:59:30.160Z,13.90
2022-08-27T03:00:30.162Z,13.80
2022-08-27T03:01:30.161Z,12.90
2022-08-27T03:02:30.237Z,15.10
2022-08-27T03:03:30.598Z,13.90
2022-08-27T03:04:30.450Z,13.80
2022-08-27T03:05:30.070Z,12.80
2022-08-27T03:06:30.068Z,13.10
2022-08-27T03:07:30.045Z,14.00
2022-08-27T03:08:30.486Z,15.50
2022-08-27T03:09:31.019Z,14.60
2022-08-27T03:10:30.558Z,13.90
2022-08-27T03:11:29.997Z,14.60
2022-08-27T03:12:30.008Z,15.00
2022-08-27T03:13:30.421Z,13.70
2022-08-27T03:14:30.058Z,15.70
2022-08-27T03:15:32.178Z,13.70
2022-08-27T03:16:29.993Z,15.70
2022-08-27T03:17:29.935Z,12.70
2022-08-27T03:18:33.745Z,16.80
2022-08-27T03:19:29.908Z,13.40
2022-08-27T03:20:29.908Z,13.60
2022-08-27T03:21:29.957Z,14.00
2022-08-27T03:22:30.908Z,13.40
2022-08-27T03:23:31.043Z,13.60
2022-08-27T03:24:29.846Z,12.40
2022-08-27T03:25:29.883Z,15.40
2022-08-27T03:26:29.806Z,13.20
2022-08-27T03:27:29.818Z,13.40
2022-08-27T03:28:30.685Z,12.20
2022-08-27T03:29:30.746Z,14.30
2022-08-27T03:30:29.784Z,13.50
2022-08-27T03:31:29.786Z,13.20
2022-08-27T03:32:29.737Z,12.10
2022-08-27T03:33:30.165Z,11.80
2022-08-27T03:34:29.824Z,12.20
2022-08-27T03:35:30.060Z,12.70
2022-08-27T03:36:29.826Z,13.20
2022-08-27T03:37:29.664Z,12.10
2022-08-27T03:38:29.744Z,13.20
2022-08-27T03:39:31.005Z,12.60
2022-08-27T03:40:29.703Z,13.30
2022-08-27T03:41:39.908Z,14.50
2022-08-27T03:42:30.615Z,12.50
2022-08-27T03:43:29.603Z,12.70
2022-08-27T03:44:32.733Z,17.30
2022-08-27T03:46:00.582Z,13.20
2022-08-27T03:46:32.083Z,14.30
2022-08-27T03:47:29.532Z,14.10
2022-08-27T03:48:30.895Z,14.90
2022-08-27T03:49:29.934Z,16.60
2022-08-27T03:50:29.503Z,16.10
2022-08-27T03:51:29.483Z,14.30
2022-08-27T03:52:29.465Z,16.20
2022-08-27T03:53:29.470Z,18.70
2022-08-27T03:54:30.163Z,19.60
2022-08-27T03:55:29.452Z,18.30
2022-08-27T03:56:29.424Z,20.00
2022-08-27T03:57:29.393Z,21.80
2022-08-27T03:58:29.403Z,23.00
2022-08-27T03:59:29.813Z,22.50
2022-08-27T04:00:29.369Z,24.50
2022-08-27T04:01:29.391Z,23.20
2022-08-27T04:02:29.383Z,24.10
2022-08-27T04:03:29.331Z,22.40
2022-08-27T04:04:29.662Z,25.10
2022-08-27T04:05:29.282Z,24.10
2022-08-27T04:06:29.288Z,25.10
2022-08-27T04:07:29.349Z,23.70
2022-08-27T04:08:29.269Z,26.30
2022-08-27T04:09:29.703Z,24.00
2022-08-27T04:10:32.954Z,24.40
2022-08-27T04:11:30.230Z,23.60
2022-08-27T04:12:29.230Z,24.80
2022-08-27T04:13:29.181Z,23.20
2022-08-27T04:14:29.529Z,27.90
2022-08-27T04:15:29.161Z,26.70
2022-08-27T04:16:29.510Z,26.00
2022-08-27T04:17:29.234Z,23.80
2022-08-27T04:18:29.210Z,21.90
2022-08-27T04:19:29.549Z,22.70
2022-08-27T04:20:35.411Z,24.00
2022-08-27T04:21:30.095Z,21.10
2022-08-27T04:22:29.089Z,22.80
2022-08-27T04:23:29.072Z,22.00
2022-08-27T04:24:29.071Z,21.20
2022-08-27T04:25:29.439Z,22.60
2022-08-27T04:26:29.027Z,22.80
2022-08-27T04:27:28.998Z,25.20
2022-08-27T04:28:28.998Z,26.80
2022-08-27T04:29:29.002Z,25.70
2022-08-27T04:30:29.419Z,28.30
2022-08-27T04:31:29.051Z,29.80
2022-08-27T04:32:29.138Z,28.10
2022-08-27T04:33:28.935Z,29.00
2022-08-27T04:34:29.298Z,31.20
2022-08-27T04:35:28.935Z,30.90
2022-08-27T04:36:28.888Z,29.50
2022-08-27T04:37:28.895Z,31.70
2022-08-27T04:38:28.878Z,32.50
2022-08-27T04:39:28.858Z,31.30
2022-08-27T04:40:29.298Z,31.10
2022-08-27T04:41:28.817Z,32.40
2022-08-27T04:42:28.829Z,31.50
2022-08-27T04:43:28.796Z,31.00
2022-08-27T04:44:28.807Z,31.30
2022-08-27T04:45:29.218Z,30.70
2022-08-27T04:46:28.883Z,32.60
2022-08-27T04:47:28.737Z,30.80
2022-08-27T04:48:28.788Z,31.20
2022-08-27T04:49:28.716Z,31.20
2022-08-27T04:50:29.136Z,31.50
2022-08-27T04:51:28.706Z,32.70
2022-08-27T04:52:28.715Z,32.60
2022-08-27T04:53:28.724Z,31.00
2022-08-27T04:54:32.747Z,30.90
2022-08-27T04:55:29.040Z,30.80
2022-08-27T04:56:28.626Z,28.30
2022-08-27T04:57:29.328Z,26.00
2022-08-27T04:58:28.605Z,26.40
2022-08-27T04:59:28.642Z,27.20
2022-08-27T05:00:28.995Z,27.10
2022-08-27T05:01:28.585Z,26.30
2022-08-27T05:02:28.557Z,29.60
2022-08-27T05:03:28.555Z,26.40
2022-08-27T05:04:28.553Z,25.50
2022-08-27T05:05:29.023Z,28.70
2022-08-27T05:06:28.506Z,27.60
2022-08-27T05:07:36.813Z,27.00
2022-08-27T05:08:28.479Z,27.30
2022-08-27T05:09:28.439Z,28.10
2022-08-27T05:10:28.869Z,27.80
2022-08-27T05:11:28.467Z,29.20
2022-08-27T05:12:39.962Z,29.80
2022-08-27T05:13:28.425Z,28.40
2022-08-27T05:14:28.387Z,28.30
2022-08-27T05:15:28.409Z,27.10
2022-08-27T05:16:28.797Z,31.00
2022-08-27T05:17:28.349Z,30.10
2022-08-27T05:18:28.350Z,26.20
2022-08-27T05:19:28.322Z,27.60
2022-08-27T05:20:28.332Z,28.90
2022-08-27T05:21:28.666Z,26.30
2022-08-27T05:22:28.291Z,26.90
2022-08-27T05:23:28.260Z,27.40
2022-08-27T05:24:28.241Z,30.20
2022-08-27T05:25:28.253Z,27.80
2022-08-27T05:26:28.844Z,28.50
2022-08-27T05:27:28.251Z,28.00
2022-08-27T05:28:28.268Z,30.40
2022-08-27T05:29:28.210Z,27.30
2022-08-27T05:30:28.226Z,28.10
2022-08-27T05:31:28.620Z,29.10
2022-08-27T05:32:29.778Z,29.20
2022-08-27T05:33:28.140Z,28.90
2022-08-27T05:34:28.141Z,28.20
2022-08-27T05:35:28.119Z,28.20
2022-08-27T05:36:28.481Z,27.70
2022-08-27T05:37:28.302Z,27.30
2022-08-27T05:38:29.672Z,28.40
2022-08-27T05:39:28.058Z,28.40
2022-08-27T05:40:28.167Z,31.20
2022-08-27T05:41:31.742Z,30.40
2022-08-27T05:42:29.238Z,30.40
2022-08-27T05:43:28.068Z,27.80
2022-08-27T05:44:41.859Z,30.10
2022-08-27T05:45:29.440Z,28.30
2022-08-27T05:46:28.053Z,27.50
2022-08-27T05:47:27.962Z,27.40
2022-08-27T05:48:27.926Z,26.60
2022-08-27T05:49:27.930Z,26.70
2022-08-27T05:50:27.916Z,26.60
2022-08-27T05:51:28.309Z,25.40
2022-08-27T05:52:27.877Z,29.20
2022-08-27T05:53:27.889Z,28.40
2022-08-27T05:54:27.893Z,28.00
2022-08-27T05:55:27.853Z,28.70
2022-08-27T05:56:28.167Z,28.00
2022-08-27T05:57:27.838Z,29.40
2022-08-27T05:58:27.856Z,29.50
2022-08-27T05:59:27.786Z,27.40
2022-08-27T06:00:27.894Z,27.90
2022-08-27T06:01:28.118Z,28.30
2022-08-27T06:02:27.765Z,27.70
2022-08-27T06:03:27.787Z,28.20
2022-08-27T06:04:27.726Z,27.60
2022-08-27T06:05:27.766Z,26.80
2022-08-27T06:06:28.116Z,28.30
2022-08-27T06:07:27.714Z,27.80
2022-08-27T06:08:27.955Z,30.00
2022-08-27T06:09:27.663Z,27.90
2022-08-27T06:10:34.724Z,28.10
2022-08-27T06:11:35.091Z,27.10
2022-08-27T06:12:34.731Z,26.80
2022-08-27T06:13:34.702Z,25.90
2022-08-27T06:14:35.696Z,27.70
2022-08-27T06:15:35.844Z,28.40
2022-08-27T06:16:28.512Z,26.30
2022-08-27T06:17:34.669Z,25.40
2022-08-27T06:18:34.933Z,26.40
2022-08-27T06:19:34.649Z,30.40
2022-08-27T06:20:35.613Z,28.50
2022-08-27T06:21:34.966Z,29.00
2022-08-27T06:22:34.667Z,30.70
2022-08-27T06:23:35.598Z,28.70
2022-08-27T06:24:27.500Z,26.60
2022-08-27T06:25:34.605Z,29.60
2022-08-27T06:26:35.031Z,28.90
2022-08-27T06:27:34.607Z,29.10
2022-08-27T06:28:34.476Z,28.90
2022-08-27T06:29:34.577Z,30.00
2022-08-27T06:30:34.478Z,30.20
2022-08-27T06:31:34.856Z,32.30
2022-08-27T06:32:34.469Z,33.70
2022-08-27T06:33:34.385Z,33.40
2022-08-27T06:34:34.458Z,32.30
2022-08-27T06:35:34.386Z,31.20
2022-08-27T06:36:34.445Z,31.10
2022-08-27T06:37:34.381Z,30.20
2022-08-27T06:38:34.350Z,32.60
2022-08-27T06:39:34.298Z,34.30
2022-08-27T06:40:35.313Z,32.90
2022-08-27T06:41:34.367Z,33.00
2022-08-27T06:42:34.812Z,34.80
2022-08-27T06:43:34.319Z,35.80
2022-08-27T06:44:35.274Z,38.20
2022-08-27T06:45:34.809Z,36.90
2022-08-27T06:46:34.804Z,36.70
2022-08-27T06:47:34.251Z,35.50
2022-08-27T06:48:34.335Z,37.40
2022-08-27T06:49:34.241Z,40.20
2022-08-27T06:50:34.289Z,37.60
2022-08-27T06:51:34.225Z,34.10
2022-08-27T06:52:34.604Z,35.10
2022-08-27T06:53:34.187Z,33.90
2022-08-27T06:54:35.138Z,34.40
2022-08-27T06:57:52.779Z,40.20
2022-08-27T06:58:59.488Z,36.70
2022-08-27T06:59:59.450Z,36.40
2022-08-27T07:00:59.538Z,35.90
2022-08-27T07:01:59.945Z,35.50
2022-08-27T07:02:59.648Z,36.10
2022-08-27T07:03:59.395Z,35.30
2022-08-27T07:04:59.433Z,44.90
2022-08-27T07:05:59.366Z,45.70
2022-08-27T07:07:00.760Z,42.60
2022-08-27T07:07:59.333Z,44.60
2022-08-27T07:08:59.336Z,43.40
2022-08-27T07:09:59.315Z,45.40
2022-08-27T07:10:59.349Z,38.90
2022-08-27T07:11:59.258Z,41.50
2022-08-27T07:12:59.717Z,42.30
2022-08-27T07:13:59.229Z,41.30
2022-08-27T07:15:00.440Z,41.80
2022-08-27T07:15:59.368Z,40.50
2022-08-27T07:16:59.183Z,42.50
2022-08-27T07:17:59.586Z,40.80
2022-08-27T07:19:00.965Z,40.00
2022-08-27T07:20:00.230Z,43.40
2022-08-27T07:20:59.138Z,44.50
2022-08-27T07:21:59.247Z,42.90
2022-08-27T07:22:59.558Z,44.00
2022-08-27T07:23:59.188Z,42.40
2022-08-27T07:24:59.137Z,46.20
2022-08-27T07:25:59.148Z,42.90
2022-08-27T07:26:59.096Z,47.70
2022-08-27T07:27:59.392Z,48.70
2022-08-27T07:29:00.074Z,48.20
2022-08-27T07:29:59.196Z,47.40
2022-08-27T07:31:00.298Z,44.90
2022-08-27T07:31:59.275Z,45.80
2022-08-27T07:32:59.762Z,48.50
2022-08-27T07:33:59.004Z,44.70
2022-08-27T07:34:59.001Z,45.50
2022-08-27T07:35:58.984Z,46.60
2022-08-27T07:36:58.953Z,47.30
2022-08-27T07:37:59.387Z,47.00
2022-08-27T07:39:01.701Z,44.70
2022-08-27T07:39:58.975Z,48.50
2022-08-27T07:40:58.884Z,45.50
2022-08-27T07:41:58.924Z,46.90
2022-08-27T07:42:59.254Z,48.30
2022-08-27T07:43:59.880Z,48.60
2022-08-27T07:44:58.864Z,48.30
2022-08-27T07:45:59.930Z,45.60
2022-08-27T07:46:58.823Z,45.80
2022-08-27T07:47:58.840Z,43.80
2022-08-27T07:48:58.751Z,45.00
2022-08-27T07:49:58.797Z,46.60
2022-08-27T07:50:59.798Z,43.90
2022-08-27T07:51:58.788Z,46.80
2022-08-27T07:52:59.223Z,44.50
2022-08-27T07:53:58.721Z,45.60
2022-08-27T07:54:58.740Z,45.60
2022-08-27T07:55:58.706Z,46.70
2022-08-27T07:56:58.740Z,45.80
2022-08-27T07:58:00.117Z,47.70
2022-08-27T07:58:58.684Z,47.10
2022-08-27T07:59:58.659Z,44.50
2022-08-27T08:00:58.664Z,46.80
2022-08-27T08:01:58.648Z,50.80
2022-08-27T08:03:00.038Z,48.40
2022-08-27T08:03:58.614Z,48.50
2022-08-27T08:04:59.576Z,48.60
2022-08-27T08:05:58.599Z,49.60
2022-08-27T08:06:58.545Z,48.30
2022-08-27T08:07:58.995Z,52.80
2022-08-27T08:08:58.571Z,48.30
2022-08-27T08:09:58.497Z,46.70
2022-08-27T08:10:58.519Z,48.40
2022-08-27T08:11:58.499Z,45.50
2022-08-27T08:12:59.842Z,45.80
2022-08-27T08:13:58.478Z,48.80
2022-08-27T08:14:59.467Z,44.90
2022-08-27T08:15:58.413Z,46.40
2022-08-27T08:16:51.404Z,46.80
2022-08-27T08:17:58.792Z,48.40
2022-08-27T08:18:51.334Z,45.90
2022-08-27T08:20:15.417Z,47.20
2022-08-27T08:20:58.430Z,45.80
2022-08-27T08:21:57.161Z,47.50
2022-08-27T08:22:52.709Z,44.50
2022-08-27T08:23:51.268Z,65.90
2022-08-27T08:24:51.213Z,51.80
2022-08-27T08:25:51.227Z,46.90
2022-08-27T08:26:51.200Z,42.60
2022-08-27T08:27:51.188Z,46.00
2022-08-27T08:28:51.550Z,50.60
2022-08-27T08:29:51.201Z,49.10
2022-08-27T08:30:51.294Z,47.90
2022-08-27T08:31:51.150Z,46.60
2022-08-27T08:32:51.120Z,45.90
2022-08-27T08:33:51.570Z,48.90
2022-08-27T08:34:51.091Z,46.30
2022-08-27T08:35:51.087Z,49.90
2022-08-27T08:36:54.877Z,49.10
2022-08-27T08:37:51.077Z,47.70
2022-08-27T08:38:51.471Z,49.00
2022-08-27T08:39:51.067Z,48.80
2022-08-27T08:40:51.031Z,49.30
2022-08-27T08:41:51.009Z,51.30
2022-08-27T08:42:50.999Z,51.30
2022-08-27T08:43:51.418Z,52.20
2022-08-27T08:44:50.970Z,51.10
2022-08-27T08:45:51.125Z,50.10
2022-08-27T08:46:50.949Z,50.20
2022-08-27T08:47:50.968Z,52.20
2022-08-27T08:48:51.341Z,51.40
2022-08-27T08:49:50.896Z,52.20
2022-08-27T08:50:50.890Z,49.50
2022-08-27T08:51:50.895Z,49.90
2022-08-27T08:52:50.869Z,55.10
2022-08-27T08:53:51.188Z,52.60
2022-08-27T08:54:50.852Z,48.20
2022-08-27T08:55:50.819Z,52.70
2022-08-27T08:56:54.815Z,53.80
2022-08-27T08:57:50.866Z,51.20
2022-08-27T08:58:51.187Z,51.50
2022-08-27T08:59:50.780Z,49.80
2022-08-27T09:00:50.788Z,53.30
2022-08-27T09:01:50.749Z,51.10
2022-08-27T09:02:50.734Z,54.00
2022-08-27T09:03:51.213Z,52.10
2022-08-27T09:04:50.698Z,56.30
2022-08-27T09:05:50.707Z,50.80
2022-08-27T09:06:50.688Z,48.00
2022-08-27T09:07:50.688Z,49.10
2022-08-27T09:08:50.978Z,51.30
2022-08-27T09:09:50.659Z,52.10
2022-08-27T09:10:50.637Z,53.00
2022-08-27T09:11:50.617Z,55.40
2022-08-27T09:12:50.609Z,49.40
2022-08-27T09:13:50.906Z,54.70
2022-08-27T09:14:50.587Z,53.40
2022-08-27T09:15:50.563Z,53.70
2022-08-27T09:16:50.623Z,52.40
2022-08-27T09:17:51.535Z,53.90
2022-08-27T09:18:52.357Z,54.40
2022-08-27T09:19:52.315Z,51.70
2022-08-27T09:20:50.517Z,55.60
2022-08-27T09:21:50.476Z,48.70
2022-08-27T09:22:50.494Z,54.20
2022-08-27T09:23:50.447Z,54.00
2022-08-27T09:24:50.884Z,56.30
2022-08-27T09:25:50.453Z,54.00
2022-08-27T09:26:50.456Z,53.40
2022-08-27T09:27:50.398Z,50.80
2022-08-27T09:28:50.397Z,56.80
2022-08-27T09:29:50.405Z,54.70
2022-08-27T09:30:50.430Z,52.50
2022-08-27T09:31:50.365Z,51.90
2022-08-27T09:32:50.332Z,54.20
2022-08-27T09:33:56.034Z,60.50
2022-08-27T09:34:51.673Z,54.40
2022-08-27T09:35:50.276Z,55.50
2022-08-27T09:36:50.290Z,54.10
2022-08-27T09:37:50.295Z,53.90
2022-08-27T09:38:57.859Z,66.10
2022-08-27T09:39:51.782Z,56.40
2022-08-27T09:40:50.298Z,55.20
2022-08-27T09:41:50.215Z,54.20
2022-08-27T09:42:50.315Z,52.70
2022-08-27T09:43:50.218Z,55.30
2022-08-27T09:44:53.660Z,57.60
2022-08-27T09:45:50.253Z,58.30
2022-08-27T09:46:50.175Z,57.60
2022-08-27T09:47:50.128Z,54.90
2022-08-27T09:48:50.114Z,52.90
2022-08-27T09:49:50.536Z,54.00
2022-08-27T09:50:50.114Z,46.70
2022-08-27T09:51:50.084Z,45.50
2022-08-27T09:52:50.104Z,42.40
2022-08-27T09:53:50.195Z,33.90
2022-08-27T09:54:50.102Z,37.10
2022-08-27T09:55:50.170Z,33.60
2022-08-27T09:56:50.040Z,34.30
2022-08-27T09:57:50.144Z,32.20
2022-08-27T09:58:49.993Z,29.60
2022-08-27T09:59:50.394Z,31.30
2022-08-27T10:00:50.033Z,33.40
2022-08-27T10:01:49.983Z,31.80
2022-08-27T10:02:50.000Z,29.10
2022-08-27T10:03:50.043Z,29.00
2022-08-27T10:04:51.761Z,31.00
2022-08-27T10:05:49.944Z,31.70
2022-08-27T10:06:49.976Z,31.40
2022-08-27T10:07:49.886Z,31.90
2022-08-27T10:08:49.894Z,31.70
2022-08-27T10:09:50.294Z,32.20
2022-08-27T10:10:49.861Z,28.50
2022-08-27T10:11:49.837Z,30.20
2022-08-27T10:12:49.809Z,30.10
2022-08-27T10:13:49.820Z,28.90
2022-08-27T10:14:50.127Z,28.80
2022-08-27T10:15:49.943Z,27.50
2022-08-27T10:16:49.825Z,28.00
2022-08-27T10:17:49.742Z,26.40
2022-08-27T10:18:50.117Z,27.70
2022-08-27T10:19:49.711Z,25.60
2022-08-27T10:20:49.712Z,24.40
2022-08-27T10:21:49.728Z,22.80
2022-08-27T10:22:49.679Z,21.60
2022-08-27T10:23:49.652Z,21.90
2022-08-27T10:24:50.089Z,20.80
2022-08-27T10:25:49.619Z,21.20
2022-08-27T10:26:49.632Z,21.50
2022-08-27T10:27:49.618Z,22.20
2022-08-27T10:28:49.619Z,20.60
2022-08-27T10:29:50.049Z,21.80
2022-08-27T10:30:49.749Z,22.00
2022-08-27T10:31:49.661Z,21.20
2022-08-27T10:32:52.238Z,21.40
2022-08-27T10:33:49.589Z,21.40
2022-08-27T10:34:50.017Z,21.60
2022-08-27T10:35:55.039Z,21.80
2022-08-27T10:36:50.490Z,22.70
2022-08-27T10:37:49.489Z,21.80
2022-08-27T10:38:49.503Z,21.60
2022-08-27T10:39:49.950Z,17.90
2022-08-27T10:40:49.462Z,15.20
2022-08-27T10:41:49.438Z,16.10
2022-08-27T10:42:49.430Z,16.90
2022-08-27T10:43:50.408Z,14.60
2022-08-27T10:44:56.965Z,13.60
2022-08-27T10:45:49.434Z,12.90
2022-08-27T10:46:50.502Z,11.70
2022-08-27T10:47:49.477Z,12.60
2022-08-27T10:48:49.359Z,12.50
2022-08-27T10:49:49.318Z,12.90
2022-08-27T10:50:49.850Z,12.60
2022-08-27T10:51:49.477Z,14.00
2022-08-27T10:52:51.625Z,14.90
2022-08-27T10:53:49.391Z,14.50
2022-08-27T10:54:49.859Z,14.00
2022-08-27T10:55:49.241Z,14.70
2022-08-27T10:56:54.268Z,15.30
2022-08-27T10:58:00.349Z,18.90
2022-08-27T10:58:49.223Z,17.20
2022-08-27T10:59:49.249Z,14.70
2022-08-27T11:00:49.771Z,16.40
2022-08-27T11:01:56.404Z,16.00
2022-08-27T11:02:49.212Z,13.70
2022-08-27T11:03:49.160Z,13.60
2022-08-27T11:06:05.495Z,13.60
2022-08-27T11:07:12.403Z,13.20
2022-08-27T11:08:05.241Z,15.00
2022-08-27T11:09:07.590Z,14.20
2022-08-27T11:10:05.623Z,16.70
2022-08-27T11:12:03.302Z,14.90
2022-08-27T11:12:14.808Z,13.20
2022-08-27T11:14:16.483Z,12.80
2022-08-27T11:15:16.387Z,13.30
2022-08-27T11:16:16.453Z,13.10
2022-08-27T11:17:16.316Z,14.00
2022-08-27T11:18:23.472Z,13.10
2022-08-27T11:19:16.324Z,11.90
2022-08-27T11:20:16.721Z,12.50
2022-08-27T11:21:16.305Z,14.20
2022-08-27T11:22:24.141Z,13.40
2022-08-27T11:23:17.256Z,12.40
2022-08-27T11:24:16.293Z,12.40
2022-08-27T11:25:16.245Z,12.20
2022-08-27T11:26:16.617Z,11.50
2022-08-27T11:27:16.258Z,12.30
2022-08-27T11:28:16.178Z,13.50
2022-08-27T11:29:16.206Z,14.20
2022-08-27T11:30:16.166Z,13.10
2022-08-27T11:31:16.296Z,13.10
2022-08-27T11:32:16.128Z,13.10
2022-08-27T11:33:16.237Z,13.50
2022-08-27T11:34:16.108Z,13.50
2022-08-27T11:35:16.108Z,13.70
2022-08-27T11:36:16.117Z,13.10
2022-08-27T11:37:16.067Z,13.40
2022-08-27T11:38:16.077Z,13.20
2022-08-27T11:39:16.056Z,13.80
2022-08-27T11:40:16.153Z,14.20
2022-08-27T11:41:16.059Z,13.80
2022-08-27T11:42:16.037Z,14.60
2022-08-27T11:43:16.007Z,13.40
2022-08-27T11:44:16.009Z,14.10
2022-08-27T11:45:16.000Z,14.60
2022-08-27T11:46:16.372Z,15.00
2022-08-27T11:47:15.974Z,15.10
2022-08-27T11:48:15.959Z,15.10
2022-08-27T11:49:15.927Z,15.70
2022-08-27T11:50:15.926Z,15.60
2022-08-27T11:51:19.071Z,15.80
2022-08-27T11:52:15.867Z,15.90
2022-08-27T11:53:15.858Z,15.10
2022-08-27T11:54:15.860Z,15.60
2022-08-27T11:55:15.865Z,15.60
2022-08-27T11:56:15.860Z,16.20
2022-08-27T11:57:15.860Z,15.50
2022-08-27T11:58:15.807Z,16.90
2022-08-27T11:59:15.842Z,16.80
2022-08-27T12:00:15.765Z,15.80
2022-08-27T12:01:16.195Z,16.40
2022-08-27T12:02:15.772Z,14.30
2022-08-27T12:03:15.784Z,14.50
2022-08-27T12:04:15.818Z,14.00
2022-08-27T12:05:15.744Z,14.30
2022-08-27T12:06:15.725Z,13.90
2022-08-27T12:07:15.677Z,14.00
2022-08-27T12:08:15.679Z,15.30
2022-08-27T12:09:15.655Z,14.90
2022-08-27T12:10:15.665Z,14.50
2022-08-27T12:11:15.768Z,14.60
2022-08-27T12:12:15.625Z,14.70
2022-08-27T12:13:15.608Z,14.70
2022-08-27T12:14:15.609Z,14.60
2022-08-27T12:15:15.624Z,13.50
2022-08-27T12:16:15.620Z,14.10
2022-08-27T12:17:16.006Z,12.60
2022-08-27T12:18:15.556Z,11.70
2022-08-27T12:19:15.525Z,11.90
2022-08-27T12:20:15.562Z,12.70
2022-08-27T12:21:15.626Z,12.20
2022-08-27T12:22:15.935Z,11.50
2022-08-27T12:23:15.470Z,10.90
2022-08-27T12:24:15.500Z,11.30
2022-08-27T12:25:15.462Z,11.00
2022-08-27T12:26:15.455Z,9.30
2022-08-27T12:27:15.463Z,9.10
2022-08-27T12:28:15.503Z,8.80
2022-08-27T12:29:15.395Z,8.20
2022-08-27T12:30:15.484Z,8.20
2022-08-27T12:31:15.469Z,8.10
2022-08-27T12:32:15.811Z,8.00
2022-08-27T12:33:15.403Z,7.00
2022-08-27T12:34:15.411Z,7.30
2022-08-27T12:35:15.559Z,6.60
2022-08-27T12:36:15.496Z,6.80
2022-08-27T12:37:15.454Z,6.20
2022-08-27T12:38:16.025Z,6.50
2022-08-27T12:39:15.276Z,6.50
2022-08-27T12:40:15.317Z,7.30
2022-08-27T12:41:19.185Z,6.80
2022-08-27T12:42:15.575Z,7.10
2022-08-27T12:43:15.246Z,7.30
2022-08-27T12:44:15.219Z,7.10
2022-08-27T12:45:15.215Z,6.90
2022-08-27T12:46:15.204Z,7.60
2022-08-27T12:47:15.544Z,7.70
2022-08-27T12:48:15.177Z,7.80
2022-08-27T12:49:38.439Z,7.40
2022-08-27T12:50:16.143Z,7.00
2022-08-27T12:51:15.134Z,7.50
2022-08-27T12:52:15.485Z,7.10
2022-08-27T12:53:15.118Z,7.70
2022-08-27T12:54:15.089Z,7.70
2022-08-27T12:55:15.137Z,10.70
2022-08-27T12:56:15.064Z,7.40
2022-08-27T12:57:15.083Z,6.70
2022-08-27T12:58:15.884Z,6.80